sensor_id;sensor_type;location;lat;lon;timestamp;temperature;humidity
43581;DHT22;29175;51.030;4.606;2023-03-05T00:00:18;8.00;99.90
43581;DHT22;29175;51.030;4.606;2023-03-05T00:02:44;8.00;99.90
43581;DHT22;29175;51.030;4.606;2023-03-05T00:05:10;8.10;99.90
43581;DHT22;29175;51.030;4.606;2023-03-05T00:07:36;8.10;99.90
43581;DHT22;29175;51.030;4.606;2023-03-05T00:10:03;8.10;99.90
43581;DHT22;29175;51.030;4.606;2023-03-05T00:12:29;8.00;99.90
43581;DHT22;29175;51.030;4.606;2023-03-05T00:14:55;8.00;99.90
43581;DHT22;29175;51.030;4.606;2023-03-05T00:17:21;8.00;99.90
43581;DHT22;29175;51.030;4.606;2023-03-05T00:19:47;8.00;99.90
43581;DHT22;29175;51.030;4.606;2023-03-05T00:22:13;8.10;99.90
43581;DHT22;29175;51.030;4.606;2023-03-05T00:24:39;8.00;99.90
43581;DHT22;29175;51.030;4.606;2023-03-05T00:27:05;8.00;99.90
43581;DHT22;29175;51.030;4.606;2023-03-05T00:29:30;8.00;99.90
43581;DHT22;29175;51.030;4.606;2023-03-05T00:31:56;8.00;99.90
43581;DHT22;29175;51.030;4.606;2023-03-05T00:34:22;7.90;99.90
43581;DHT22;29175;51.030;4.606;2023-03-05T00:36:51;7.90;99.90
43581;DHT22;29175;51.030;4.606;2023-03-05T00:39:18;7.80;99.90
43581;DHT22;29175;51.030;4.606;2023-03-05T00:41:45;7.90;99.90
43581;DHT22;29175;51.030;4.606;2023-03-05T00:44:11;7.90;99.90
43581;DHT22;29175;51.030;4.606;2023-03-05T00:46:37;8.00;99.90
43581;DHT22;29175;51.030;4.606;2023-03-05T00:49:04;8.00;99.90
43581;DHT22;29175;51.030;4.606;2023-03-05T00:51:30;8.00;99.90
43581;DHT22;29175;51.030;4.606;2023-03-05T00:53:56;8.00;99.90
43581;DHT22;29175;51.030;4.606;2023-03-05T00:56:22;8.10;99.90
43581;DHT22;29175;51.030;4.606;2023-03-05T00:58:48;7.90;99.90
43581;DHT22;29175;51.030;4.606;2023-03-05T01:01:14;7.80;99.90
43581;DHT22;29175;51.030;4.606;2023-03-05T01:03:40;7.80;99.90
43581;DHT22;29175;51.030;4.606;2023-03-05T01:06:08;8.00;99.90
43581;DHT22;29175;51.030;4.606;2023-03-05T01:08:36;8.10;99.90
43581;DHT22;29175;51.030;4.606;2023-03-05T01:11:03;8.10;99.90
43581;DHT22;29175;51.030;4.606;2023-03-05T01:13:30;8.00;99.90
43581;DHT22;29175;51.030;4.606;2023-03-05T01:15:56;7.90;99.90
43581;DHT22;29175;51.030;4.606;2023-03-05T01:18:22;7.90;99.90
43581;DHT22;29175;51.030;4.606;2023-03-05T01:20:48;8.00;99.90
43581;DHT22;29175;51.030;4.606;2023-03-05T01:23:14;8.10;99.90
43581;DHT22;29175;51.030;4.606;2023-03-05T01:25:40;8.10;99.90
43581;DHT22;29175;51.030;4.606;2023-03-05T01:28:06;8.00;99.90
43581;DHT22;29175;51.030;4.606;2023-03-05T01:30:32;7.80;99.90
43581;DHT22;29175;51.030;4.606;2023-03-05T01:32:58;7.60;99.90
43581;DHT22;29175;51.030;4.606;2023-03-05T01:35:24;7.40;99.90
43581;DHT22;29175;51.030;4.606;2023-03-05T01:37:51;7.50;99.90
43581;DHT22;29175;51.030;4.606;2023-03-05T01:40:20;7.60;99.90
43581;DHT22;29175;51.030;4.606;2023-03-05T01:42:57;7.80;99.90
43581;DHT22;29175;51.030;4.606;2023-03-05T01:45:24;7.60;99.90
43581;DHT22;29175;51.030;4.606;2023-03-05T01:47:50;7.50;99.90
43581;DHT22;29175;51.030;4.606;2023-03-05T01:50:19;7.60;99.90
43581;DHT22;29175;51.030;4.606;2023-03-05T01:52:48;7.70;99.90
43581;DHT22;29175;51.030;4.606;2023-03-05T01:55:22;7.60;99.90
43581;DHT22;29175;51.030;4.606;2023-03-05T01:58:10;7.50;99.90
43581;DHT22;29175;51.030;4.606;2023-03-05T02:00:42;7.40;99.90
43581;DHT22;29175;51.030;4.606;2023-03-05T02:03:10;7.50;99.90
43581;DHT22;29175;51.030;4.606;2023-03-05T02:05:38;7.60;99.90
43581;DHT22;29175;51.030;4.606;2023-03-05T02:08:07;7.60;99.90
43581;DHT22;29175;51.030;4.606;2023-03-05T02:10:39;7.70;99.90
43581;DHT22;29175;51.030;4.606;2023-03-05T02:13:09;7.80;99.90
43581;DHT22;29175;51.030;4.606;2023-03-05T02:15:37;7.50;99.90
43581;DHT22;29175;51.030;4.606;2023-03-05T02:18:04;7.40;99.90
43581;DHT22;29175;51.030;4.606;2023-03-05T02:20:43;7.40;99.90
43581;DHT22;29175;51.030;4.606;2023-03-05T02:23:09;7.40;99.90
43581;DHT22;29175;51.030;4.606;2023-03-05T02:25:35;7.40;99.90
43581;DHT22;29175;51.030;4.606;2023-03-05T02:28:14;7.60;99.90
43581;DHT22;29175;51.030;4.606;2023-03-05T02:30:41;7.50;99.90
43581;DHT22;29175;51.030;4.606;2023-03-05T02:33:07;7.40;99.90
43581;DHT22;29175;51.030;4.606;2023-03-05T02:35:33;7.20;99.90
43581;DHT22;29175;51.030;4.606;2023-03-05T02:37:58;7.10;99.90
43581;DHT22;29175;51.030;4.606;2023-03-05T02:40:25;7.20;99.90
43581;DHT22;29175;51.030;4.606;2023-03-05T02:42:52;7.20;99.90
43581;DHT22;29175;51.030;4.606;2023-03-05T02:45:18;7.20;99.90
43581;DHT22;29175;51.030;4.606;2023-03-05T02:47:44;7.30;99.90
43581;DHT22;29175;51.030;4.606;2023-03-05T02:50:10;7.40;99.90
43581;DHT22;29175;51.030;4.606;2023-03-05T02:52:37;7.40;99.90
43581;DHT22;29175;51.030;4.606;2023-03-05T02:55:03;7.30;99.90
43581;DHT22;29175;51.030;4.606;2023-03-05T02:57:29;7.20;99.90
43581;DHT22;29175;51.030;4.606;2023-03-05T02:59:55;7.20;99.90
43581;DHT22;29175;51.030;4.606;2023-03-05T03:02:21;7.20;99.90
43581;DHT22;29175;51.030;4.606;2023-03-05T03:04:47;7.30;99.90
43581;DHT22;29175;51.030;4.606;2023-03-05T03:07:14;7.40;99.90
43581;DHT22;29175;51.030;4.606;2023-03-05T03:09:40;7.40;99.90
43581;DHT22;29175;51.030;4.606;2023-03-05T03:12:08;7.40;99.90
43581;DHT22;29175;51.030;4.606;2023-03-05T03:14:36;7.50;99.90
43581;DHT22;29175;51.030;4.606;2023-03-05T03:17:07;7.30;99.90
43581;DHT22;29175;51.030;4.606;2023-03-05T03:19:34;7.30;99.90
43581;DHT22;29175;51.030;4.606;2023-03-05T03:22:00;7.40;99.90
43581;DHT22;29175;51.030;4.606;2023-03-05T03:24:26;7.30;99.90
43581;DHT22;29175;51.030;4.606;2023-03-05T03:26:53;7.20;99.90
43581;DHT22;29175;51.030;4.606;2023-03-05T03:29:19;7.20;99.90
43581;DHT22;29175;51.030;4.606;2023-03-05T03:31:45;7.10;99.90
43581;DHT22;29175;51.030;4.606;2023-03-05T03:34:12;7.20;99.90
43581;DHT22;29175;51.030;4.606;2023-03-05T03:36:39;7.40;99.90
43581;DHT22;29175;51.030;4.606;2023-03-05T03:39:05;7.30;99.90
43581;DHT22;29175;51.030;4.606;2023-03-05T03:41:31;7.30;99.90
43581;DHT22;29175;51.030;4.606;2023-03-05T03:43:57;7.40;99.90
43581;DHT22;29175;51.030;4.606;2023-03-05T03:46:23;7.20;99.90
43581;DHT22;29175;51.030;4.606;2023-03-05T03:48:49;7.20;99.90
43581;DHT22;29175;51.030;4.606;2023-03-05T03:51:16;7.20;99.90
43581;DHT22;29175;51.030;4.606;2023-03-05T03:53:42;7.20;99.90
43581;DHT22;29175;51.030;4.606;2023-03-05T03:56:08;7.30;99.90
43581;DHT22;29175;51.030;4.606;2023-03-05T03:58:34;7.50;99.90
43581;DHT22;29175;51.030;4.606;2023-03-05T04:01:00;7.50;99.90
43581;DHT22;29175;51.030;4.606;2023-03-05T04:03:26;7.40;99.90
43581;DHT22;29175;51.030;4.606;2023-03-05T04:05:52;7.40;99.90
43581;DHT22;29175;51.030;4.606;2023-03-05T04:08:18;7.40;99.90
43581;DHT22;29175;51.030;4.606;2023-03-05T04:10:43;7.40;99.90
43581;DHT22;29175;51.030;4.606;2023-03-05T04:13:09;7.20;99.90
43581;DHT22;29175;51.030;4.606;2023-03-05T04:15:35;7.10;99.90
43581;DHT22;29175;51.030;4.606;2023-03-05T04:18:01;7.20;99.90
43581;DHT22;29175;51.030;4.606;2023-03-05T04:20:27;7.20;99.90
43581;DHT22;29175;51.030;4.606;2023-03-05T04:22:53;7.30;99.90
43581;DHT22;29175;51.030;4.606;2023-03-05T04:25:19;7.30;99.90
43581;DHT22;29175;51.030;4.606;2023-03-05T04:27:44;7.20;99.90
43581;DHT22;29175;51.030;4.606;2023-03-05T04:30:12;7.00;99.90
43581;DHT22;29175;51.030;4.606;2023-03-05T04:32:41;6.90;99.90
43581;DHT22;29175;51.030;4.606;2023-03-05T04:35:07;7.10;99.90
43581;DHT22;29175;51.030;4.606;2023-03-05T04:37:33;7.10;99.90
43581;DHT22;29175;51.030;4.606;2023-03-05T04:39:59;7.00;99.90
43581;DHT22;29175;51.030;4.606;2023-03-05T04:42:25;7.00;99.90
43581;DHT22;29175;51.030;4.606;2023-03-05T04:44:51;6.80;99.90
43581;DHT22;29175;51.030;4.606;2023-03-05T04:47:17;6.80;99.90
43581;DHT22;29175;51.030;4.606;2023-03-05T04:49:44;6.80;99.90
43581;DHT22;29175;51.030;4.606;2023-03-05T04:52:11;6.90;99.90
43581;DHT22;29175;51.030;4.606;2023-03-05T04:54:38;7.00;99.90
43581;DHT22;29175;51.030;4.606;2023-03-05T04:57:04;7.10;99.90
43581;DHT22;29175;51.030;4.606;2023-03-05T04:59:30;7.20;99.90
43581;DHT22;29175;51.030;4.606;2023-03-05T05:01:56;7.00;99.90
43581;DHT22;29175;51.030;4.606;2023-03-05T05:04:22;6.70;99.90
43581;DHT22;29175;51.030;4.606;2023-03-05T05:06:47;6.60;99.90
43581;DHT22;29175;51.030;4.606;2023-03-05T05:09:13;6.60;99.90
43581;DHT22;29175;51.030;4.606;2023-03-05T05:11:39;6.60;99.90
43581;DHT22;29175;51.030;4.606;2023-03-05T05:14:05;6.70;99.90
43581;DHT22;29175;51.030;4.606;2023-03-05T05:16:31;6.80;99.90
43581;DHT22;29175;51.030;4.606;2023-03-05T05:18:57;6.70;99.90
43581;DHT22;29175;51.030;4.606;2023-03-05T05:21:23;6.80;99.90
43581;DHT22;29175;51.030;4.606;2023-03-05T05:23:49;7.10;99.90
43581;DHT22;29175;51.030;4.606;2023-03-05T05:26:14;7.00;99.90
43581;DHT22;29175;51.030;4.606;2023-03-05T05:28:42;6.70;99.90
43581;DHT22;29175;51.030;4.606;2023-03-05T05:31:10;6.90;99.90
43581;DHT22;29175;51.030;4.606;2023-03-05T05:33:37;6.90;99.90
43581;DHT22;29175;51.030;4.606;2023-03-05T05:36:05;7.00;99.90
43581;DHT22;29175;51.030;4.606;2023-03-05T05:38:31;7.10;99.90
43581;DHT22;29175;51.030;4.606;2023-03-05T05:41:06;7.10;99.90
43581;DHT22;29175;51.030;4.606;2023-03-05T05:43:32;7.10;99.90
43581;DHT22;29175;51.030;4.606;2023-03-05T05:46:03;7.20;99.90
43581;DHT22;29175;51.030;4.606;2023-03-05T05:48:31;7.10;99.90
43581;DHT22;29175;51.030;4.606;2023-03-05T05:50:57;6.90;99.90
43581;DHT22;29175;51.030;4.606;2023-03-05T05:53:23;6.80;99.90
43581;DHT22;29175;51.030;4.606;2023-03-05T05:55:50;6.90;99.90
43581;DHT22;29175;51.030;4.606;2023-03-05T05:58:15;6.90;99.90
43581;DHT22;29175;51.030;4.606;2023-03-05T06:00:42;6.80;99.90
43581;DHT22;29175;51.030;4.606;2023-03-05T06:03:07;6.80;99.90
43581;DHT22;29175;51.030;4.606;2023-03-05T06:05:34;6.60;99.90
43581;DHT22;29175;51.030;4.606;2023-03-05T06:08:00;6.50;99.90
43581;DHT22;29175;51.030;4.606;2023-03-05T06:10:25;6.60;99.90
43581;DHT22;29175;51.030;4.606;2023-03-05T06:12:51;6.80;99.90
43581;DHT22;29175;51.030;4.606;2023-03-05T06:15:17;6.90;99.90
43581;DHT22;29175;51.030;4.606;2023-03-05T06:17:44;6.90;99.90
43581;DHT22;29175;51.030;4.606;2023-03-05T06:20:12;7.00;99.90
43581;DHT22;29175;51.030;4.606;2023-03-05T06:22:39;6.80;99.90
43581;DHT22;29175;51.030;4.606;2023-03-05T06:25:06;6.90;99.90
43581;DHT22;29175;51.030;4.606;2023-03-05T06:27:34;7.00;99.90
43581;DHT22;29175;51.030;4.606;2023-03-05T06:30:00;7.10;99.90
43581;DHT22;29175;51.030;4.606;2023-03-05T06:32:26;7.10;99.90
43581;DHT22;29175;51.030;4.606;2023-03-05T06:34:52;7.20;99.90
43581;DHT22;29175;51.030;4.606;2023-03-05T06:37:18;7.10;99.90
43581;DHT22;29175;51.030;4.606;2023-03-05T06:39:44;6.90;99.90
43581;DHT22;29175;51.030;4.606;2023-03-05T06:42:10;6.90;99.90
43581;DHT22;29175;51.030;4.606;2023-03-05T06:44:40;6.80;99.90
43581;DHT22;29175;51.030;4.606;2023-03-05T06:47:06;6.80;99.90
43581;DHT22;29175;51.030;4.606;2023-03-05T06:49:34;6.90;99.90
43581;DHT22;29175;51.030;4.606;2023-03-05T06:52:03;6.90;99.90
43581;DHT22;29175;51.030;4.606;2023-03-05T06:54:29;6.90;99.90
43581;DHT22;29175;51.030;4.606;2023-03-05T06:56:55;6.80;99.90
43581;DHT22;29175;51.030;4.606;2023-03-05T06:59:21;7.00;99.90
43581;DHT22;29175;51.030;4.606;2023-03-05T07:01:47;7.10;99.90
43581;DHT22;29175;51.030;4.606;2023-03-05T07:04:14;7.20;99.90
43581;DHT22;29175;51.030;4.606;2023-03-05T07:06:40;7.20;99.90
43581;DHT22;29175;51.030;4.606;2023-03-05T07:09:14;7.20;99.90
43581;DHT22;29175;51.030;4.606;2023-03-05T07:11:40;7.30;99.90
43581;DHT22;29175;51.030;4.606;2023-03-05T07:14:06;7.40;99.90
43581;DHT22;29175;51.030;4.606;2023-03-05T07:16:33;7.40;99.90
43581;DHT22;29175;51.030;4.606;2023-03-05T07:19:01;7.40;99.90
43581;DHT22;29175;51.030;4.606;2023-03-05T07:21:31;7.60;99.90
43581;DHT22;29175;51.030;4.606;2023-03-05T07:23:59;7.60;99.90
43581;DHT22;29175;51.030;4.606;2023-03-05T07:26:26;7.80;99.90
43581;DHT22;29175;51.030;4.606;2023-03-05T07:28:53;7.90;99.90
43581;DHT22;29175;51.030;4.606;2023-03-05T07:31:21;7.80;99.90
43581;DHT22;29175;51.030;4.606;2023-03-05T07:33:48;7.90;99.90
43581;DHT22;29175;51.030;4.606;2023-03-05T07:36:15;8.00;99.90
43581;DHT22;29175;51.030;4.606;2023-03-05T07:38:43;8.10;99.90
43581;DHT22;29175;51.030;4.606;2023-03-05T07:41:14;8.20;99.90
43581;DHT22;29175;51.030;4.606;2023-03-05T07:43:45;8.20;99.90
43581;DHT22;29175;51.030;4.606;2023-03-05T07:46:13;8.10;99.90
43581;DHT22;29175;51.030;4.606;2023-03-05T07:48:39;8.20;99.90
43581;DHT22;29175;51.030;4.606;2023-03-05T07:51:09;8.40;99.90
43581;DHT22;29175;51.030;4.606;2023-03-05T07:53:35;8.60;99.90
43581;DHT22;29175;51.030;4.606;2023-03-05T07:56:02;8.50;99.90
43581;DHT22;29175;51.030;4.606;2023-03-05T07:58:28;8.70;99.90
43581;DHT22;29175;51.030;4.606;2023-03-05T08:00:54;8.60;99.90
43581;DHT22;29175;51.030;4.606;2023-03-05T08:03:20;8.50;99.90
43581;DHT22;29175;51.030;4.606;2023-03-05T08:05:46;8.50;99.90
43581;DHT22;29175;51.030;4.606;2023-03-05T08:08:12;8.40;99.90
43581;DHT22;29175;51.030;4.606;2023-03-05T08:10:37;8.10;99.90
43581;DHT22;29175;51.030;4.606;2023-03-05T08:13:04;8.00;99.90
43581;DHT22;29175;51.030;4.606;2023-03-05T08:15:30;8.10;99.90
43581;DHT22;29175;51.030;4.606;2023-03-05T08:17:59;8.40;99.90
43581;DHT22;29175;51.030;4.606;2023-03-05T08:20:25;8.50;99.90
43581;DHT22;29175;51.030;4.606;2023-03-05T08:22:51;8.70;99.90
43581;DHT22;29175;51.030;4.606;2023-03-05T08:25:17;8.70;99.90
43581;DHT22;29175;51.030;4.606;2023-03-05T08:27:44;8.60;99.90
43581;DHT22;29175;51.030;4.606;2023-03-05T08:30:14;8.50;99.90
43581;DHT22;29175;51.030;4.606;2023-03-05T08:32:40;8.40;99.90
43581;DHT22;29175;51.030;4.606;2023-03-05T08:35:06;8.20;99.90
43581;DHT22;29175;51.030;4.606;2023-03-05T08:37:34;8.00;99.90
43581;DHT22;29175;51.030;4.606;2023-03-05T08:40:00;7.80;99.90
43581;DHT22;29175;51.030;4.606;2023-03-05T08:42:26;7.90;99.90
43581;DHT22;29175;51.030;4.606;2023-03-05T08:44:52;7.40;99.90
43581;DHT22;29175;51.030;4.606;2023-03-05T08:47:18;7.20;99.90
43581;DHT22;29175;51.030;4.606;2023-03-05T08:49:45;7.00;99.90
43581;DHT22;29175;51.030;4.606;2023-03-05T08:52:16;6.90;99.90
43581;DHT22;29175;51.030;4.606;2023-03-05T08:54:42;7.20;99.90
43581;DHT22;29175;51.030;4.606;2023-03-05T08:57:08;7.30;99.90
43581;DHT22;29175;51.030;4.606;2023-03-05T08:59:33;7.20;99.90
43581;DHT22;29175;51.030;4.606;2023-03-05T09:02:02;7.20;99.90
43581;DHT22;29175;51.030;4.606;2023-03-05T09:04:28;7.20;99.90
43581;DHT22;29175;51.030;4.606;2023-03-05T09:06:55;7.10;99.90
43581;DHT22;29175;51.030;4.606;2023-03-05T09:09:21;7.10;99.90
43581;DHT22;29175;51.030;4.606;2023-03-05T09:11:47;6.90;99.90
43581;DHT22;29175;51.030;4.606;2023-03-05T09:14:13;7.10;99.90
43581;DHT22;29175;51.030;4.606;2023-03-05T09:16:39;7.20;99.90
43581;DHT22;29175;51.030;4.606;2023-03-05T09:19:06;7.30;99.90
43581;DHT22;29175;51.030;4.606;2023-03-05T09:21:35;7.40;99.90
43581;DHT22;29175;51.030;4.606;2023-03-05T09:24:01;7.70;99.90
43581;DHT22;29175;51.030;4.606;2023-03-05T09:26:28;7.90;99.90
43581;DHT22;29175;51.030;4.606;2023-03-05T09:28:54;8.20;99.90
43581;DHT22;29175;51.030;4.606;2023-03-05T09:31:20;8.50;99.90
43581;DHT22;29175;51.030;4.606;2023-03-05T09:33:47;8.60;99.90
43581;DHT22;29175;51.030;4.606;2023-03-05T09:36:21;8.90;99.90
43581;DHT22;29175;51.030;4.606;2023-03-05T09:38:47;9.00;99.90
43581;DHT22;29175;51.030;4.606;2023-03-05T09:46:50;9.60;99.90
43581;DHT22;29175;51.030;4.606;2023-03-05T09:52:10;10.00;99.90
43581;DHT22;29175;51.030;4.606;2023-03-05T09:54:42;10.10;99.90
43581;DHT22;29175;51.030;4.606;2023-03-05T09:57:18;10.00;99.90
43581;DHT22;29175;51.030;4.606;2023-03-05T09:59:55;10.40;99.90
43581;DHT22;29175;51.030;4.606;2023-03-05T10:02:26;10.70;99.90
43581;DHT22;29175;51.030;4.606;2023-03-05T10:07:37;11.10;99.90
43581;DHT22;29175;51.030;4.606;2023-03-05T10:10:17;11.30;99.90
43581;DHT22;29175;51.030;4.606;2023-03-05T10:12:56;11.20;99.90
43581;DHT22;29175;51.030;4.606;2023-03-05T10:15:43;11.10;99.90
43581;DHT22;29175;51.030;4.606;2023-03-05T10:21:37;11.50;99.90
43581;DHT22;29175;51.030;4.606;2023-03-05T10:24:24;11.60;99.90
43581;DHT22;29175;51.030;4.606;2023-03-05T10:27:08;11.40;99.90
43581;DHT22;29175;51.030;4.606;2023-03-05T10:29:43;10.70;99.90
43581;DHT22;29175;51.030;4.606;2023-03-05T10:32:35;10.70;99.90
43581;DHT22;29175;51.030;4.606;2023-03-05T10:38:11;11.20;99.90
43581;DHT22;29175;51.030;4.606;2023-03-05T10:40:41;11.30;99.90
43581;DHT22;29175;51.030;4.606;2023-03-05T10:45:54;10.80;99.90
43581;DHT22;29175;51.030;4.606;2023-03-05T10:48:51;10.40;99.90
43581;DHT22;29175;51.030;4.606;2023-03-05T10:51:22;10.60;99.90
43581;DHT22;29175;51.030;4.606;2023-03-05T10:54:14;10.90;99.90
43581;DHT22;29175;51.030;4.606;2023-03-05T10:56:43;11.10;99.90
43581;DHT22;29175;51.030;4.606;2023-03-05T10:59:08;11.50;99.90
43581;DHT22;29175;51.030;4.606;2023-03-05T11:01:34;11.90;99.90
43581;DHT22;29175;51.030;4.606;2023-03-05T11:04:07;12.20;99.90
43581;DHT22;29175;51.030;4.606;2023-03-05T11:06:41;12.90;99.90
43581;DHT22;29175;51.030;4.606;2023-03-05T11:09:27;13.00;99.90
43581;DHT22;29175;51.030;4.606;2023-03-05T11:12:16;13.10;99.90
43581;DHT22;29175;51.030;4.606;2023-03-05T11:17:36;13.10;99.90
43581;DHT22;29175;51.030;4.606;2023-03-05T11:25:53;12.40;99.90
43581;DHT22;29175;51.030;4.606;2023-03-05T11:28:23;12.30;99.90
43581;DHT22;29175;51.030;4.606;2023-03-05T11:30:58;12.10;99.90
43581;DHT22;29175;51.030;4.606;2023-03-05T11:33:26;12.10;99.90
43581;DHT22;29175;51.030;4.606;2023-03-05T11:36:03;11.80;99.90
43581;DHT22;29175;51.030;4.606;2023-03-05T11:38:47;11.00;99.90
43581;DHT22;29175;51.030;4.606;2023-03-05T11:41:47;10.70;99.90
43581;DHT22;29175;51.030;4.606;2023-03-05T11:44:14;10.70;99.90
43581;DHT22;29175;51.030;4.606;2023-03-05T11:46:46;10.70;99.90
43581;DHT22;29175;51.030;4.606;2023-03-05T11:49:17;10.90;99.90
43581;DHT22;29175;51.030;4.606;2023-03-05T11:52:09;11.20;99.90
43581;DHT22;29175;51.030;4.606;2023-03-05T12:00:43;11.60;99.90
43581;DHT22;29175;51.030;4.606;2023-03-05T12:03:28;11.50;99.90
43581;DHT22;29175;51.030;4.606;2023-03-05T12:08:40;11.70;99.90
43581;DHT22;29175;51.030;4.606;2023-03-05T12:11:19;11.60;99.90
43581;DHT22;29175;51.030;4.606;2023-03-05T12:14:10;11.40;99.90
43581;DHT22;29175;51.030;4.606;2023-03-05T12:16:43;11.10;99.90
43581;DHT22;29175;51.030;4.606;2023-03-05T12:19:37;10.90;99.90
43581;DHT22;29175;51.030;4.606;2023-03-05T12:22:30;11.00;99.90
43581;DHT22;29175;51.030;4.606;2023-03-05T12:27:49;10.50;99.90
43581;DHT22;29175;51.030;4.606;2023-03-05T12:33:04;10.70;99.90
43581;DHT22;29175;51.030;4.606;2023-03-05T12:35:38;10.60;99.90
43581;DHT22;29175;51.030;4.606;2023-03-05T12:38:16;10.20;99.90
43581;DHT22;29175;51.030;4.606;2023-03-05T12:40:42;9.60;99.90
43581;DHT22;29175;51.030;4.606;2023-03-05T12:43:29;9.30;99.90
43581;DHT22;29175;51.030;4.606;2023-03-05T12:46:22;9.00;99.90
43581;DHT22;29175;51.030;4.606;2023-03-05T12:48:48;8.60;99.90
43581;DHT22;29175;51.030;4.606;2023-03-05T12:51:36;8.70;99.90
43581;DHT22;29175;51.030;4.606;2023-03-05T12:54:24;8.80;99.90
43581;DHT22;29175;51.030;4.606;2023-03-05T12:56:52;8.90;99.90
43581;DHT22;29175;51.030;4.606;2023-03-05T12:59:21;8.60;99.90
43581;DHT22;29175;51.030;4.606;2023-03-05T13:01:49;8.60;99.90
43581;DHT22;29175;51.030;4.606;2023-03-05T13:04:20;8.40;99.90
43581;DHT22;29175;51.030;4.606;2023-03-05T13:07:04;8.20;99.90
43581;DHT22;29175;51.030;4.606;2023-03-05T13:09:32;8.30;99.90
43581;DHT22;29175;51.030;4.606;2023-03-05T13:12:00;8.10;99.90
43581;DHT22;29175;51.030;4.606;2023-03-05T13:16:55;8.00;99.90
43581;DHT22;29175;51.030;4.606;2023-03-05T13:19:21;8.20;99.90
43581;DHT22;29175;51.030;4.606;2023-03-05T13:22:09;8.50;99.90
43581;DHT22;29175;51.030;4.606;2023-03-05T13:24:36;8.70;99.90
43581;DHT22;29175;51.030;4.606;2023-03-05T13:27:02;8.40;99.90
43581;DHT22;29175;51.030;4.606;2023-03-05T13:29:50;8.30;99.90
43581;DHT22;29175;51.030;4.606;2023-03-05T13:32:31;8.20;99.90
43581;DHT22;29175;51.030;4.606;2023-03-05T13:34:59;8.20;99.90
43581;DHT22;29175;51.030;4.606;2023-03-05T13:37:30;8.40;99.90
43581;DHT22;29175;51.030;4.606;2023-03-05T13:40:12;8.30;99.90
43581;DHT22;29175;51.030;4.606;2023-03-05T13:42:39;7.80;99.90
43581;DHT22;29175;51.030;4.606;2023-03-05T13:45:15;7.90;99.90
43581;DHT22;29175;51.030;4.606;2023-03-05T13:47:54;7.70;99.90
43581;DHT22;29175;51.030;4.606;2023-03-05T13:53:27;7.50;99.90
43581;DHT22;29175;51.030;4.606;2023-03-05T13:55:56;7.50;99.90
43581;DHT22;29175;51.030;4.606;2023-03-05T14:04:18;7.90;99.90
43581;DHT22;29175;51.030;4.606;2023-03-05T14:09:26;8.20;99.90
43581;DHT22;29175;51.030;4.606;2023-03-05T14:12:02;8.50;99.90
43581;DHT22;29175;51.030;4.606;2023-03-05T14:14:33;8.20;99.90
43581;DHT22;29175;51.030;4.606;2023-03-05T14:22:40;7.40;99.90
43581;DHT22;29175;51.030;4.606;2023-03-05T14:25:35;7.70;99.90
43581;DHT22;29175;51.030;4.606;2023-03-05T14:30:47;7.70;99.90
43581;DHT22;29175;51.030;4.606;2023-03-05T14:33:16;7.60;99.90
43581;DHT22;29175;51.030;4.606;2023-03-05T14:35:47;7.50;99.90
43581;DHT22;29175;51.030;4.606;2023-03-05T14:38:21;7.60;99.90
43581;DHT22;29175;51.030;4.606;2023-03-05T14:40:47;7.50;99.90
43581;DHT22;29175;51.030;4.606;2023-03-05T14:43:13;7.60;99.90
43581;DHT22;29175;51.030;4.606;2023-03-05T14:45:41;7.60;99.90
43581;DHT22;29175;51.030;4.606;2023-03-05T14:48:10;7.70;99.90
43581;DHT22;29175;51.030;4.606;2023-03-05T14:50:44;7.90;99.90
43581;DHT22;29175;51.030;4.606;2023-03-05T14:53:21;8.10;99.90
43581;DHT22;29175;51.030;4.606;2023-03-05T14:55:50;8.10;99.90
43581;DHT22;29175;51.030;4.606;2023-03-05T14:58:20;8.20;99.90
43581;DHT22;29175;51.030;4.606;2023-03-05T15:00:47;8.30;99.90
43581;DHT22;29175;51.030;4.606;2023-03-05T15:03:14;8.40;99.90
43581;DHT22;29175;51.030;4.606;2023-03-05T15:05:41;8.50;99.90
43581;DHT22;29175;51.030;4.606;2023-03-05T15:08:20;8.60;99.90
43581;DHT22;29175;51.030;4.606;2023-03-05T15:10:47;8.60;99.90
43581;DHT22;29175;51.030;4.606;2023-03-05T15:13:14;8.60;99.90
43581;DHT22;29175;51.030;4.606;2023-03-05T15:15:42;8.60;99.90
43581;DHT22;29175;51.030;4.606;2023-03-05T15:18:16;8.60;99.90
43581;DHT22;29175;51.030;4.606;2023-03-05T15:20:43;8.70;99.90
43581;DHT22;29175;51.030;4.606;2023-03-05T15:23:09;8.70;99.90
43581;DHT22;29175;51.030;4.606;2023-03-05T15:25:37;8.80;99.90
43581;DHT22;29175;51.030;4.606;2023-03-05T15:28:03;8.60;99.90
43581;DHT22;29175;51.030;4.606;2023-03-05T15:30:32;8.80;99.90
43581;DHT22;29175;51.030;4.606;2023-03-05T15:33:02;8.70;99.90
43581;DHT22;29175;51.030;4.606;2023-03-05T15:35:28;8.60;99.90
43581;DHT22;29175;51.030;4.606;2023-03-05T15:37:54;8.60;99.90
43581;DHT22;29175;51.030;4.606;2023-03-05T15:40:21;8.70;99.90
43581;DHT22;29175;51.030;4.606;2023-03-05T15:42:47;8.40;99.90
43581;DHT22;29175;51.030;4.606;2023-03-05T15:45:13;8.40;99.90
43581;DHT22;29175;51.030;4.606;2023-03-05T15:47:43;8.20;99.90
43581;DHT22;29175;51.030;4.606;2023-03-05T15:50:09;8.20;99.90
43581;DHT22;29175;51.030;4.606;2023-03-05T15:52:35;8.40;99.90
43581;DHT22;29175;51.030;4.606;2023-03-05T15:55:02;8.20;99.90
43581;DHT22;29175;51.030;4.606;2023-03-05T15:57:27;8.10;99.90
43581;DHT22;29175;51.030;4.606;2023-03-05T15:59:54;8.30;99.90
43581;DHT22;29175;51.030;4.606;2023-03-05T16:02:20;8.20;99.90
43581;DHT22;29175;51.030;4.606;2023-03-05T16:04:46;8.20;99.90
43581;DHT22;29175;51.030;4.606;2023-03-05T16:07:13;8.30;99.90
43581;DHT22;29175;51.030;4.606;2023-03-05T16:09:43;8.20;99.90
43581;DHT22;29175;51.030;4.606;2023-03-05T16:12:19;8.00;99.90
43581;DHT22;29175;51.030;4.606;2023-03-05T16:14:47;7.60;99.90
43581;DHT22;29175;51.030;4.606;2023-03-05T16:17:14;7.60;99.90
43581;DHT22;29175;51.030;4.606;2023-03-05T16:19:46;7.50;99.90
43581;DHT22;29175;51.030;4.606;2023-03-05T16:22:13;7.50;99.90
43581;DHT22;29175;51.030;4.606;2023-03-05T16:24:39;7.50;99.90
43581;DHT22;29175;51.030;4.606;2023-03-05T16:27:05;7.40;99.90
43581;DHT22;29175;51.030;4.606;2023-03-05T16:29:31;7.50;99.90
43581;DHT22;29175;51.030;4.606;2023-03-05T16:31:58;7.60;99.90
43581;DHT22;29175;51.030;4.606;2023-03-05T16:34:26;7.60;99.90
43581;DHT22;29175;51.030;4.606;2023-03-05T16:36:52;7.60;99.90
43581;DHT22;29175;51.030;4.606;2023-03-05T16:39:19;7.50;99.90
43581;DHT22;29175;51.030;4.606;2023-03-05T16:41:46;7.50;99.90
43581;DHT22;29175;51.030;4.606;2023-03-05T16:44:14;7.60;99.90
43581;DHT22;29175;51.030;4.606;2023-03-05T16:46:40;7.70;99.90
43581;DHT22;29175;51.030;4.606;2023-03-05T16:49:08;7.50;99.90
43581;DHT22;29175;51.030;4.606;2023-03-05T16:51:34;7.40;99.90
43581;DHT22;29175;51.030;4.606;2023-03-05T16:54:00;7.60;99.90
43581;DHT22;29175;51.030;4.606;2023-03-05T16:56:26;7.70;99.90
43581;DHT22;29175;51.030;4.606;2023-03-05T16:58:54;7.40;99.90
43581;DHT22;29175;51.030;4.606;2023-03-05T17:01:21;7.40;99.90